createdAt,value
2018-06-10T00:01:26.490Z,93.13
2018-06-10T00:03:54.825Z,93.25
2018-06-10T00:06:23.226Z,94.30
2018-06-10T00:08:51.631Z,93.66
2018-06-10T00:11:20.144Z,93.49
2018-06-10T00:13:48.532Z,93.99
2018-06-10T00:16:16.929Z,93.58
2018-06-10T00:18:45.441Z,93.41
2018-06-10T00:21:13.856Z,94.03
2018-06-10T00:23:42.227Z,94.53
2018-06-10T00:26:10.622Z,93.62
2018-06-10T00:28:44.314Z,93.34
2018-06-10T00:31:12.695Z,93.29
2018-06-10T00:33:41.045Z,94.10
2018-06-10T00:36:09.418Z,94.14
2018-06-10T00:38:37.839Z,93.70
2018-06-10T00:41:06.218Z,93.87
2018-06-10T00:43:34.582Z,95.08
2018-06-10T00:46:02.988Z,95.16
2018-06-10T00:48:31.335Z,94.81
2018-06-10T00:50:59.743Z,93.93
2018-06-10T00:53:28.147Z,94.34
2018-06-10T00:55:56.528Z,93.75
2018-06-10T00:58:24.907Z,93.58
2018-06-10T01:00:53.356Z,93.54
2018-06-10T01:03:21.731Z,93.64
2018-06-10T01:05:50.160Z,93.29
2018-06-10T01:08:18.611Z,93.12
2018-06-10T01:10:46.945Z,93.05
2018-06-10T01:13:15.389Z,94.29
2018-06-10T01:15:43.781Z,93.53
2018-06-10T01:18:12.211Z,93.82
2018-06-10T01:20:40.630Z,93.59
2018-06-10T01:23:09.039Z,93.53
2018-06-10T01:25:37.392Z,93.73
2018-06-10T01:28:05.921Z,94.36
2018-06-10T01:30:34.268Z,93.51
2018-06-10T01:33:02.636Z,93.35
2018-06-10T01:35:30.976Z,93.69
2018-06-10T01:37:59.356Z,93.96
2018-06-10T01:40:27.683Z,92.87
2018-06-10T01:42:56.038Z,93.92
2018-06-10T01:45:24.402Z,93.06
2018-06-10T01:47:52.812Z,92.82
2018-06-10T01:50:21.231Z,93.55
2018-06-10T01:52:49.661Z,92.78
2018-06-10T01:55:18.116Z,92.76
2018-06-10T01:57:46.492Z,93.07
2018-06-10T02:00:14.909Z,93.14
2018-06-10T02:02:43.285Z,92.85
2018-06-10T02:05:11.601Z,93.09
2018-06-10T02:07:39.915Z,92.79
2018-06-10T02:10:08.301Z,93.25
2018-06-10T02:12:36.643Z,93.02
2018-06-10T02:15:05.052Z,93.62
2018-06-10T02:17:33.416Z,92.33
2018-06-10T02:20:01.794Z,92.62
2018-06-10T02:22:30.311Z,93.18
2018-06-10T02:24:58.633Z,92.50
2018-06-10T02:27:26.955Z,93.64
2018-06-10T02:29:55.349Z,92.48
2018-06-10T02:32:23.712Z,93.50
2018-06-10T02:34:52.106Z,92.69
2018-06-10T02:37:20.470Z,92.45
2018-06-10T02:39:48.812Z,92.92
2018-06-10T02:42:17.191Z,92.52
2018-06-10T02:44:45.580Z,92.61
2018-06-10T02:47:13.975Z,93.22
2018-06-10T02:49:42.407Z,92.10
2018-06-10T02:52:10.785Z,92.15
2018-06-10T02:54:39.144Z,92.19
2018-06-10T02:57:07.511Z,91.90
2018-06-10T02:59:35.909Z,93.03
2018-06-10T03:02:04.408Z,92.46
2018-06-10T03:04:32.702Z,92.74
2018-06-10T03:07:01.051Z,91.90
2018-06-10T03:09:29.400Z,91.73
2018-06-10T03:11:57.712Z,92.09
2018-06-10T03:14:26.100Z,91.59
2018-06-10T03:16:54.576Z,91.80
2018-06-10T03:19:22.939Z,92.35
2018-06-10T03:21:51.277Z,92.14
2018-06-10T03:24:19.629Z,92.31
2018-06-10T03:26:47.963Z,91.68
2018-06-10T03:29:16.405Z,92.53
2018-06-10T03:31:44.817Z,92.33
2018-06-10T03:34:13.171Z,91.90
2018-06-10T03:36:41.569Z,92.73
2018-06-10T03:39:09.884Z,93.22
2018-06-10T03:41:38.253Z,92.47
2018-06-10T03:44:06.696Z,93.49
2018-06-10T03:46:35.107Z,93.66
2018-06-10T03:49:03.509Z,93.18
2018-06-10T03:51:31.863Z,93.17
2018-06-10T03:54:00.229Z,93.52
2018-06-10T03:56:28.548Z,93.44
2018-06-10T03:58:56.914Z,93.51
2018-06-10T04:01:25.399Z,92.79
2018-06-10T04:03:53.739Z,93.70
2018-06-10T04:06:22.100Z,93.58
2018-06-10T04:08:50.451Z,92.35
2018-06-10T04:11:18.784Z,92.31
2018-06-10T04:13:47.148Z,93.12
2018-06-10T04:16:15.499Z,92.95
2018-06-10T04:18:43.808Z,92.00
2018-06-10T04:21:12.165Z,92.13
2018-06-10T04:23:41.339Z,92.34
2018-06-10T04:26:09.717Z,93.27
2018-06-10T04:28:38.123Z,92.60
2018-06-10T04:31:06.518Z,93.03
2018-06-10T04:33:34.934Z,93.10
2018-06-10T04:36:03.293Z,92.44
2018-06-10T04:38:31.603Z,92.76
2018-06-10T04:40:59.936Z,93.08
2018-06-10T04:43:28.344Z,93.03
2018-06-10T04:45:56.717Z,92.24
2018-06-10T04:48:25.045Z,91.84
2018-06-10T04:50:53.436Z,93.01
2018-06-10T04:53:21.794Z,91.79
2018-06-10T04:55:50.198Z,91.87
2018-06-10T04:58:18.597Z,91.67
2018-06-10T05:00:47.003Z,92.59
2018-06-10T05:03:15.358Z,92.04
2018-06-10T05:05:43.715Z,92.78
2018-06-10T05:08:12.057Z,91.62
2018-06-10T05:10:40.411Z,91.63
2018-06-10T05:13:08.788Z,91.68
2018-06-10T05:15:37.199Z,91.96
2018-06-10T05:18:05.605Z,91.96
2018-06-10T05:20:33.983Z,92.86
2018-06-10T05:23:02.304Z,92.72
2018-06-10T05:25:30.780Z,92.06
2018-06-10T05:27:59.121Z,92.40
2018-06-10T05:30:27.501Z,92.57
2018-06-10T05:32:55.936Z,92.68
2018-06-10T05:35:24.361Z,92.26
2018-06-10T05:37:52.740Z,92.73
2018-06-10T05:40:21.122Z,92.20
2018-06-10T05:42:49.522Z,91.83
2018-06-10T05:45:17.923Z,92.47
2018-06-10T05:47:46.388Z,92.75
2018-06-10T05:50:14.878Z,92.66
2018-06-10T05:52:43.272Z,92.88
2018-06-10T05:55:11.755Z,92.78
2018-06-10T05:57:40.119Z,92.03
2018-06-10T06:00:09.301Z,91.88
2018-06-10T06:02:37.822Z,91.69
2018-06-10T06:05:06.383Z,91.82
2018-06-10T06:07:35.512Z,92.65
2018-06-10T06:10:03.924Z,91.81
2018-06-10T06:12:32.285Z,92.26
2018-06-10T06:15:00.685Z,91.58
2018-06-10T06:17:29.051Z,92.44
2018-06-10T06:19:57.496Z,92.48
2018-06-10T06:22:25.884Z,92.37
2018-06-10T06:24:54.223Z,92.14
2018-06-10T06:27:22.631Z,92.43
2018-06-10T06:29:50.935Z,92.24
2018-06-10T06:32:19.253Z,92.24
2018-06-10T06:34:47.597Z,92.12
2018-06-10T06:37:15.930Z,91.09
2018-06-10T06:39:44.305Z,91.74
2018-06-10T06:42:12.726Z,91.96
2018-06-10T06:44:41.147Z,92.07
2018-06-10T06:47:09.518Z,92.20
2018-06-10T06:49:37.866Z,91.81
2018-06-10T06:52:06.429Z,90.83
2018-06-10T06:54:34.769Z,91.82
2018-06-10T06:57:03.158Z,90.62
2018-06-10T06:59:31.543Z,90.38
2018-06-10T07:01:59.931Z,90.88
2018-06-10T07:04:28.256Z,91.04
2018-06-10T07:06:56.645Z,90.80
2018-06-10T07:09:25.064Z,91.11
2018-06-10T07:11:53.509Z,91.28
2018-06-10T07:14:21.975Z,91.57
2018-06-10T07:16:50.310Z,90.52
2018-06-10T07:19:18.671Z,89.99
2018-06-10T07:21:47.001Z,89.89
2018-06-10T07:24:15.321Z,90.81
2018-06-10T07:26:43.703Z,90.72
2018-06-10T07:29:12.104Z,90.41
2018-06-10T07:31:40.415Z,90.21
2018-06-10T07:34:08.750Z,90.70
2018-06-10T07:36:37.091Z,89.76
2018-06-10T07:39:07.891Z,90.54
2018-06-10T07:41:36.530Z,90.60
2018-06-10T07:44:04.952Z,90.53
2018-06-10T07:46:33.323Z,89.78
2018-06-10T07:49:01.668Z,89.85
2018-06-10T07:51:30.089Z,90.23
2018-06-10T07:53:58.452Z,90.01
2018-06-10T07:56:26.811Z,90.31
2018-06-10T07:58:55.215Z,91.03
2018-06-10T08:01:23.536Z,90.08
2018-06-10T08:03:51.894Z,90.87
2018-06-10T08:06:20.210Z,90.26
2018-06-10T08:08:48.806Z,90.15
2018-06-10T08:11:17.135Z,89.92
2018-06-10T08:13:45.461Z,90.15
2018-06-10T08:16:13.955Z,91.00
2018-06-10T08:18:42.464Z,90.36
2018-06-10T08:21:10.815Z,90.53
2018-06-10T08:23:39.340Z,91.52
2018-06-10T08:26:07.703Z,91.38
2018-06-10T08:28:36.214Z,90.34
2018-06-10T08:31:04.605Z,91.16
2018-06-10T08:33:33.121Z,90.31
2018-06-10T08:36:01.490Z,90.03
2018-06-10T08:38:29.824Z,89.95
2018-06-10T08:40:58.232Z,89.71
2018-06-10T08:43:26.551Z,90.42
2018-06-10T08:45:54.952Z,90.34
2018-06-10T08:48:23.282Z,90.23
2018-06-10T08:50:51.591Z,89.55
2018-06-10T08:53:19.899Z,90.52
2018-06-10T08:55:48.275Z,90.40
2018-06-10T08:58:16.702Z,90.42
2018-06-10T09:00:45.180Z,90.66
2018-06-10T09:03:13.572Z,90.66
2018-06-10T09:05:42.014Z,90.06
2018-06-10T09:08:10.392Z,90.44
2018-06-10T09:10:38.770Z,89.85
2018-06-10T09:13:07.231Z,89.14
2018-06-10T09:15:35.642Z,89.85
2018-06-10T09:18:03.987Z,89.18
2018-06-10T09:20:32.320Z,89.30
2018-06-10T09:23:00.667Z,88.21
2018-06-10T09:25:29.034Z,88.39
2018-06-10T09:27:57.427Z,89.42
2018-06-10T09:30:25.779Z,88.70
2018-06-10T09:32:54.127Z,89.08
2018-06-10T09:35:22.534Z,88.08
2018-06-10T09:37:50.875Z,89.12
2018-06-10T09:40:19.319Z,88.08
2018-06-10T09:42:47.726Z,88.30
2018-06-10T09:45:16.074Z,87.85
2018-06-10T09:47:44.568Z,87.72
2018-06-10T09:50:12.915Z,86.16
2018-06-10T09:52:41.273Z,85.23
2018-06-10T09:55:09.621Z,84.97
2018-06-10T09:57:37.952Z,83.82
2018-06-10T10:00:06.401Z,84.20
2018-06-10T10:02:34.748Z,83.65
2018-06-10T10:05:03.087Z,82.09
2018-06-10T10:07:31.412Z,82.59
2018-06-10T10:10:00.344Z,82.81
2018-06-10T10:12:28.694Z,82.21
2018-06-10T10:14:57.003Z,81.33
2018-06-10T10:17:25.363Z,82.04
2018-06-10T10:19:53.671Z,79.63
2018-06-10T10:22:21.998Z,80.39
2018-06-10T10:24:50.315Z,78.52
2018-06-10T10:27:18.670Z,79.25
2018-06-10T10:29:47.025Z,78.95
2018-06-10T10:32:15.355Z,79.55
2018-06-10T10:34:44.112Z,79.30
2018-06-10T10:37:12.479Z,79.20
2018-06-10T10:39:40.902Z,78.82
2018-06-10T10:42:09.255Z,79.85
2018-06-10T10:44:37.621Z,78.01
2018-06-10T10:47:05.998Z,78.74
2018-06-10T10:49:34.324Z,78.13
2018-06-10T10:52:02.741Z,79.17
2018-06-10T10:54:31.197Z,78.71
2018-06-10T10:56:59.570Z,77.35
2018-06-10T10:59:28.811Z,76.62
2018-06-10T11:01:57.218Z,77.69
2018-06-10T11:04:25.600Z,77.91
2018-06-10T11:06:54.000Z,76.73
2018-06-10T11:09:22.386Z,77.18
2018-06-10T11:11:50.775Z,76.52
2018-06-10T11:14:19.105Z,76.85
2018-06-10T11:16:47.480Z,75.70
2018-06-10T11:19:15.818Z,77.05
2018-06-10T11:21:44.184Z,76.30
2018-06-10T11:24:13.206Z,77.44
2018-06-10T11:26:41.716Z,75.89
2018-06-10T11:29:10.045Z,74.69
2018-06-10T11:31:38.453Z,73.90
2018-06-10T11:34:06.765Z,71.80
2018-06-10T11:36:35.179Z,71.98
2018-06-10T11:39:03.816Z,71.49
2018-06-10T11:41:32.223Z,70.35
2018-06-10T11:44:00.628Z,72.27
2018-06-10T11:46:29.007Z,71.62
2018-06-10T11:48:57.387Z,70.42
2018-06-10T11:51:25.817Z,70.18
2018-06-10T11:53:54.200Z,70.00
2018-06-10T11:56:22.650Z,70.78
2018-06-10T11:58:51.041Z,67.68
2018-06-10T12:01:19.359Z,67.85
2018-06-10T12:03:48.467Z,67.22
2018-06-10T12:06:16.821Z,67.53
2018-06-10T12:08:45.299Z,67.35
2018-06-10T12:11:13.696Z,65.44
2018-06-10T12:13:42.132Z,66.67
2018-06-10T12:16:10.471Z,65.29
2018-06-10T12:18:38.802Z,66.77
2018-06-10T12:21:07.232Z,65.92
2018-06-10T12:23:35.645Z,64.02
2018-06-10T12:26:04.178Z,65.19
2018-06-10T12:28:32.572Z,63.23
2018-06-10T12:31:00.912Z,62.98
2018-06-10T12:33:29.244Z,61.58
2018-06-10T12:35:57.621Z,63.62
2018-06-10T12:38:26.056Z,64.82
2018-06-10T12:40:54.622Z,65.19
2018-06-10T12:43:23.000Z,65.02
2018-06-10T12:45:51.410Z,63.33
2018-06-10T12:48:19.843Z,63.04
2018-06-10T12:50:48.218Z,62.50
2018-06-10T12:53:16.675Z,62.13
2018-06-10T12:55:45.101Z,62.14
2018-06-10T12:58:13.461Z,61.60
2018-06-10T13:00:41.852Z,60.26
2018-06-10T13:03:10.167Z,60.04
2018-06-10T13:05:38.528Z,60.19
2018-06-10T13:08:07.004Z,60.35
2018-06-10T13:10:35.403Z,60.71
2018-06-10T13:13:03.891Z,59.13
2018-06-10T13:15:32.235Z,58.99
2018-06-10T13:18:00.715Z,59.26
2018-06-10T13:20:29.188Z,58.47
2018-06-10T13:22:57.583Z,57.65
2018-06-10T13:25:25.961Z,57.56
2018-06-10T13:27:54.503Z,57.73
2018-06-10T13:30:22.905Z,58.15
2018-06-10T13:32:51.333Z,57.87
2018-06-10T13:35:20.288Z,59.04
2018-06-10T13:37:48.698Z,58.00
2018-06-10T13:40:17.195Z,57.86
2018-06-10T13:42:45.633Z,58.30
2018-06-10T13:45:14.005Z,57.94
2018-06-10T13:47:42.459Z,58.31
2018-06-10T13:50:10.813Z,59.01
2018-06-10T13:52:39.230Z,58.67
2018-06-10T13:55:07.684Z,58.41
2018-06-10T13:57:36.185Z,58.47
2018-06-10T14:00:04.865Z,59.61
2018-06-10T14:02:33.208Z,57.79
2018-06-10T14:05:01.563Z,58.02
2018-06-10T14:07:29.972Z,58.24
2018-06-10T14:09:58.390Z,56.15
2018-06-10T14:12:26.794Z,56.90
2018-06-10T14:14:55.193Z,58.42
2018-06-10T14:17:23.542Z,57.87
2018-06-10T14:19:51.919Z,58.74
2018-06-10T14:22:20.296Z,58.91
2018-06-10T14:24:48.873Z,58.87
2018-06-10T14:27:17.308Z,58.99
2018-06-10T14:29:45.690Z,57.08
2018-06-10T14:32:14.034Z,56.96
2018-06-10T14:34:42.443Z,56.70
2018-06-10T14:37:10.866Z,56.86
2018-06-10T14:39:39.295Z,55.53
2018-06-10T14:42:07.651Z,56.17
2018-06-10T14:44:36.047Z,56.37
2018-06-10T14:47:04.381Z,56.22
2018-06-10T14:49:32.795Z,56.78
2018-06-10T14:52:01.183Z,57.36
2018-06-10T14:54:29.527Z,56.67
2018-06-10T14:56:57.971Z,56.59
2018-06-10T14:59:26.361Z,56.85
2018-06-10T15:01:54.791Z,57.23
2018-06-10T15:04:23.121Z,58.18
2018-06-10T15:06:51.558Z,58.59
2018-06-10T15:09:19.930Z,59.00
2018-06-10T15:11:49.191Z,58.94
2018-06-10T15:14:17.602Z,59.27
2018-06-10T15:16:45.983Z,58.66
2018-06-10T15:19:14.335Z,59.10
2018-06-10T15:21:42.796Z,59.46
2018-06-10T15:24:11.178Z,59.57
2018-06-10T15:26:40.104Z,60.20
2018-06-10T15:29:08.442Z,59.78
2018-06-10T15:31:36.824Z,59.10
2018-06-10T15:34:05.239Z,59.33
2018-06-10T15:36:33.727Z,59.20
2018-06-10T15:39:02.127Z,58.69
2018-06-10T15:41:30.491Z,58.82
2018-06-10T15:43:58.942Z,59.65
2018-06-10T15:46:27.362Z,59.45
2018-06-10T15:48:56.792Z,58.86
2018-06-10T15:51:25.124Z,58.95
2018-06-10T15:53:54.494Z,58.20
2018-06-10T15:56:23.149Z,58.58
2018-06-10T15:58:51.654Z,58.37
2018-06-10T16:01:20.036Z,56.92
2018-06-10T16:03:48.412Z,57.19
2018-06-10T16:06:16.816Z,57.21
2018-06-10T16:08:45.217Z,56.24
2018-06-10T16:11:13.626Z,56.10
2018-06-10T16:13:42.038Z,56.59
2018-06-10T16:16:10.452Z,54.68
2018-06-10T16:18:38.833Z,52.86
2018-06-10T16:21:07.331Z,50.91
2018-06-10T16:23:35.710Z,50.21
2018-06-10T16:26:04.115Z,48.30
2018-06-10T16:28:32.491Z,48.00
2018-06-10T16:31:00.949Z,46.97
2018-06-10T16:33:29.575Z,46.16
2018-06-10T16:35:58.114Z,45.76
2018-06-10T16:38:26.506Z,45.51
2018-06-10T16:40:54.924Z,44.94
2018-06-10T16:43:23.355Z,44.87
2018-06-10T16:45:51.702Z,45.40
2018-06-10T16:48:20.143Z,45.52
2018-06-10T16:50:48.615Z,45.44
2018-06-10T16:53:16.979Z,46.00
2018-06-10T16:55:45.303Z,46.90
2018-06-10T16:58:13.697Z,47.80
2018-06-10T17:00:42.069Z,47.71
2018-06-10T17:03:10.392Z,48.28
2018-06-10T17:05:38.771Z,48.56
2018-06-10T17:08:07.172Z,47.96
2018-06-10T17:10:35.574Z,47.11
2018-06-10T17:13:04.027Z,47.62
2018-06-10T17:15:32.427Z,47.70
2018-06-10T17:18:00.759Z,48.20
2018-06-10T17:20:29.153Z,48.03
2018-06-10T17:22:57.457Z,47.62
2018-06-10T17:25:25.931Z,48.28
2018-06-10T17:27:54.295Z,48.32
2018-06-10T17:30:22.683Z,49.33
2018-06-10T17:32:51.187Z,48.99
2018-06-10T17:35:19.618Z,49.44
2018-06-10T17:37:48.647Z,49.30
2018-06-10T17:40:17.024Z,49.46
2018-06-10T17:42:45.474Z,50.65
2018-06-10T17:45:13.876Z,50.52
2018-06-10T17:47:42.260Z,51.13
2018-06-10T17:50:10.617Z,51.35
2018-06-10T17:52:39.029Z,52.19
2018-06-10T17:55:08.198Z,51.86
2018-06-10T17:57:36.568Z,52.77
2018-06-10T18:00:04.947Z,53.15
2018-06-10T18:02:33.536Z,52.93
2018-06-10T18:05:01.944Z,53.21
2018-06-10T18:07:30.432Z,53.23
2018-06-10T18:09:58.868Z,52.54
2018-06-10T18:12:27.337Z,53.18
2018-06-10T18:14:55.807Z,53.44
2018-06-10T18:17:24.124Z,54.14
2018-06-10T18:19:52.486Z,54.67
2018-06-10T18:22:20.879Z,55.08
2018-06-10T18:24:49.315Z,55.71
2018-06-10T18:27:17.622Z,55.12
2018-06-10T18:29:45.989Z,56.41
2018-06-10T18:32:14.289Z,56.08
2018-06-10T18:34:42.634Z,57.91
2018-06-10T18:37:11.003Z,56.82
2018-06-10T18:39:39.471Z,57.61
2018-06-10T18:42:07.947Z,57.19
2018-06-10T18:44:36.270Z,58.54
2018-06-10T18:47:04.617Z,59.40
2018-06-10T18:49:33.090Z,58.88
2018-06-10T18:52:02.204Z,59.79
2018-06-10T18:54:30.683Z,59.17
2018-06-10T18:56:59.063Z,59.01
2018-06-10T18:59:27.507Z,59.58
2018-06-10T19:01:55.966Z,61.67
2018-06-10T19:04:24.344Z,61.88
2018-06-10T19:06:53.895Z,62.18
2018-06-10T19:09:22.347Z,61.50
2018-06-10T19:11:50.795Z,62.27
2018-06-10T19:14:19.190Z,61.97
2018-06-10T19:16:47.669Z,61.93
2018-06-10T19:19:16.027Z,61.15
2018-06-10T19:21:44.370Z,62.34
2018-06-10T19:24:12.836Z,64.01
2018-06-10T19:26:41.184Z,63.55
2018-06-10T19:29:09.607Z,64.04
2018-06-10T19:31:38.002Z,64.66
2018-06-10T19:34:06.518Z,64.94
2018-06-10T19:36:34.903Z,64.26
2018-06-10T19:39:03.738Z,64.92
2018-06-10T19:41:32.344Z,65.19
2018-06-10T19:44:00.759Z,64.65
2018-06-10T19:46:29.186Z,65.15
2018-06-10T19:48:57.563Z,65.49
2018-06-10T19:51:25.987Z,65.48
2018-06-10T19:53:55.199Z,64.57
2018-06-10T19:56:23.875Z,65.79
2018-06-10T19:58:52.463Z,65.18
2018-06-10T20:01:20.905Z,65.79
2018-06-10T20:03:50.009Z,66.18
2018-06-10T20:06:18.987Z,65.84
2018-06-10T20:08:47.443Z,66.13
2018-06-10T20:11:15.786Z,66.56
2018-06-10T20:13:44.166Z,66.60
2018-06-10T20:16:12.542Z,65.73
2018-06-10T20:18:42.144Z,66.00
2018-06-10T20:21:10.640Z,66.41
2018-06-10T20:23:39.111Z,66.71
2018-06-10T20:26:07.527Z,67.04
2018-06-10T20:28:35.838Z,66.79
2018-06-10T20:31:04.222Z,67.60
2018-06-10T20:33:32.662Z,66.92
2018-06-10T20:36:01.015Z,67.31
2018-06-10T20:38:29.405Z,67.76
2018-06-10T20:40:57.750Z,68.07
2018-06-10T20:43:26.179Z,67.67
2018-06-10T20:45:54.580Z,68.24
2018-06-10T20:48:22.992Z,68.96
2018-06-10T20:50:51.353Z,67.89
2018-06-10T20:53:19.659Z,68.67
2018-06-10T20:55:48.003Z,68.56
2018-06-10T20:58:16.315Z,69.16
2018-06-10T21:00:44.774Z,68.08
2018-06-10T21:03:13.136Z,67.94
2018-06-10T21:05:41.532Z,69.13
2018-06-10T21:08:09.914Z,68.81
2018-06-10T21:10:38.253Z,68.09
2018-06-10T21:13:06.688Z,69.04
2018-06-10T21:15:35.357Z,68.75
2018-06-10T21:18:03.728Z,68.16
2018-06-10T21:20:32.068Z,69.15
2018-06-10T21:23:00.402Z,68.53
2018-06-10T21:25:28.760Z,68.58
2018-06-10T21:27:57.191Z,67.47
2018-06-10T21:30:25.611Z,68.07
2018-06-10T21:32:53.936Z,67.19
2018-06-10T21:35:22.352Z,67.64
2018-06-10T21:37:50.695Z,67.64
2018-06-10T21:40:19.049Z,67.82
2018-06-10T21:42:47.435Z,66.95
2018-06-10T21:45:15.919Z,67.20
2018-06-10T21:47:44.349Z,68.31
2018-06-10T21:50:12.684Z,68.06
2018-06-10T21:52:41.053Z,68.58
2018-06-10T21:55:10.139Z,68.52
2018-06-10T21:57:38.522Z,68.20
2018-06-10T22:00:10.967Z,68.49
2018-06-10T22:02:39.296Z,67.63
2018-06-10T22:05:07.656Z,68.14
2018-06-10T22:07:36.135Z,68.28
2018-06-10T22:10:04.555Z,68.80
2018-06-10T22:12:32.911Z,67.65
2018-06-10T22:15:01.225Z,67.71
2018-06-10T22:17:29.563Z,68.62
2018-06-10T22:19:57.985Z,68.00
2018-06-10T22:22:26.363Z,68.64
2018-06-10T22:24:54.819Z,68.69
2018-06-10T22:27:23.207Z,67.36
2018-06-10T22:29:51.534Z,68.46
2018-06-10T22:32:19.853Z,67.38
2018-06-10T22:34:48.250Z,67.37
2018-06-10T22:37:16.592Z,67.97
2018-06-10T22:39:44.961Z,67.32
2018-06-10T22:42:13.333Z,67.56
2018-06-10T22:44:41.667Z,68.28
2018-06-10T22:47:10.031Z,68.16
2018-06-10T22:49:38.422Z,69.43
2018-06-10T22:52:06.826Z,68.95
2018-06-10T22:54:44.815Z,68.73
2018-06-10T22:57:13.186Z,68.60
2018-06-10T22:59:41.562Z,68.67
2018-06-10T23:02:10.595Z,68.57
2018-06-10T23:04:38.945Z,68.35
2018-06-10T23:07:07.286Z,68.44
2018-06-10T23:09:35.642Z,68.64
2018-06-10T23:12:04.097Z,68.85
2018-06-10T23:14:32.460Z,68.77
2018-06-10T23:17:00.815Z,68.53
2018-06-10T23:19:29.145Z,67.80
2018-06-10T23:21:57.483Z,68.35
2018-06-10T23:24:25.888Z,69.55
2018-06-10T23:26:54.288Z,69.20
2018-06-10T23:29:22.656Z,68.11
2018-06-10T23:31:51.004Z,68.70
2018-06-10T23:34:19.353Z,69.68
2018-06-10T23:36:47.702Z,68.65
2018-06-10T23:39:16.104Z,68.59
2018-06-10T23:41:44.482Z,69.61
2018-06-10T23:44:12.856Z,68.72
2018-06-10T23:46:41.184Z,68.73
2018-06-10T23:49:09.571Z,68.45
2018-06-10T23:51:37.898Z,68.86
2018-06-10T23:54:06.261Z,68.44
2018-06-10T23:56:35.197Z,69.25
2018-06-10T23:59:03.582Z,68.11
